createdAt,value
2018-07-11T00:01:14.974Z,12.77
2018-07-11T00:03:46.137Z,10.00
2018-07-11T00:06:15.872Z,9.20
2018-07-11T00:08:44.246Z,9.27
2018-07-11T00:11:12.893Z,10.13
2018-07-11T00:13:43.529Z,9.37
2018-07-11T00:16:12.657Z,9.63
2018-07-11T00:18:41.052Z,11.17
2018-07-11T00:21:09.477Z,8.53
2018-07-11T00:23:38.000Z,8.60
2018-07-11T00:26:07.420Z,10.73
2018-07-11T00:28:35.789Z,9.60
2018-07-11T00:31:04.193Z,10.33
2018-07-11T00:33:32.532Z,9.43
2018-07-11T00:36:01.020Z,9.37
2018-07-11T00:38:29.625Z,8.57
2018-07-11T00:40:58.852Z,9.20
2018-07-11T00:43:28.064Z,10.80
2018-07-11T00:45:56.505Z,9.77
2018-07-11T00:48:24.889Z,9.57
2018-07-11T00:50:53.273Z,9.77
2018-07-11T00:53:22.724Z,9.07
2018-07-11T00:55:51.148Z,14.20
2018-07-11T00:59:28.892Z,10.93
2018-07-11T01:02:02.288Z,11.10
2018-07-11T01:04:30.748Z,11.20
2018-07-11T01:07:00.743Z,10.47
2018-07-11T01:09:30.582Z,11.17
2018-07-11T01:11:59.025Z,10.17
2018-07-11T01:14:27.470Z,12.33
2018-07-11T01:16:55.904Z,9.20
2018-07-11T01:19:24.361Z,9.73
2018-07-11T01:22:01.588Z,12.40
2018-07-11T01:24:31.134Z,10.00
2018-07-11T01:27:00.245Z,8.37
2018-07-11T01:29:28.624Z,8.43
2018-07-11T01:31:57.039Z,8.20
2018-07-11T01:34:25.384Z,10.90
2018-07-11T01:36:53.805Z,8.90
2018-07-11T01:39:22.220Z,11.87
2018-07-11T01:41:50.774Z,9.23
2018-07-11T01:44:19.129Z,10.60
2018-07-11T01:46:48.857Z,10.70
2018-07-11T01:49:17.274Z,12.07
2018-07-11T01:51:57.654Z,17.60
2018-07-11T01:54:26.857Z,18.20
2018-07-11T01:56:55.248Z,19.20
2018-07-11T01:59:27.056Z,23.47
2018-07-11T02:01:55.789Z,26.30
2018-07-11T02:04:24.208Z,23.90
2018-07-11T02:06:52.800Z,23.97
2018-07-11T02:09:21.234Z,26.60
2018-07-11T02:11:49.677Z,22.80
2018-07-11T02:14:18.160Z,24.70
2018-07-11T02:16:46.595Z,21.70
2018-07-11T02:19:15.368Z,20.23
2018-07-11T02:21:43.808Z,23.40
2018-07-11T02:24:12.189Z,20.00
2018-07-11T02:26:40.601Z,19.50
2018-07-11T02:29:09.036Z,21.20
2018-07-11T02:31:37.423Z,20.90
2018-07-11T02:34:05.885Z,23.33
2018-07-11T02:36:34.265Z,21.03
2018-07-11T02:39:02.761Z,21.87
2018-07-11T02:41:31.149Z,22.87
2018-07-11T02:43:59.549Z,19.50
2018-07-11T02:46:33.338Z,19.63
2018-07-11T02:49:01.765Z,17.87
2018-07-11T02:51:30.192Z,20.60
2018-07-11T02:53:59.170Z,25.50
2018-07-11T02:56:27.570Z,24.37
2018-07-11T02:58:55.940Z,23.47
2018-07-11T03:01:24.289Z,21.00
2018-07-11T03:03:53.314Z,20.60
2018-07-11T03:06:21.667Z,23.33
2018-07-11T03:08:50.049Z,23.67
2018-07-11T03:11:18.409Z,21.03
2018-07-11T03:13:46.780Z,23.53
2018-07-11T03:17:18.376Z,24.30
2018-07-11T03:19:46.782Z,29.50
2018-07-11T03:22:15.502Z,39.70
2018-07-11T03:24:44.006Z,39.47
2018-07-11T03:27:12.601Z,40.00
2018-07-11T03:29:41.229Z,43.70
2018-07-11T03:32:09.634Z,46.47
2018-07-11T03:34:38.022Z,48.50
2018-07-11T03:37:06.513Z,47.57
2018-07-11T03:39:34.941Z,47.70
2018-07-11T03:42:03.369Z,44.90
2018-07-11T03:44:31.800Z,46.83
2018-07-11T03:47:00.181Z,44.80
2018-07-11T03:49:28.545Z,47.57
2018-07-11T03:51:56.900Z,43.03
2018-07-11T03:54:25.374Z,34.70
2018-07-11T03:56:53.701Z,32.20
2018-07-11T03:59:22.087Z,32.80
2018-07-11T04:01:50.413Z,37.27
2018-07-11T04:04:18.765Z,33.17
2018-07-11T04:06:47.096Z,31.97
2018-07-11T04:09:15.485Z,38.50
2018-07-11T04:11:43.857Z,37.83
2018-07-11T04:14:15.100Z,41.60
2018-07-11T04:16:43.457Z,40.80
2018-07-11T04:19:11.866Z,36.80
2018-07-11T04:21:40.133Z,33.50
2018-07-11T04:24:08.540Z,35.80
2018-07-11T04:26:36.949Z,35.80
2018-07-11T04:29:05.337Z,35.87
2018-07-11T04:31:33.705Z,33.27
2018-07-11T04:34:02.096Z,33.13
2018-07-11T04:36:30.462Z,32.80
2018-07-11T04:38:58.869Z,34.73
2018-07-11T04:41:27.244Z,35.53
2018-07-11T04:43:55.644Z,35.53
2018-07-11T04:46:24.053Z,33.07
2018-07-11T04:48:52.456Z,38.53
2018-07-11T04:51:20.861Z,38.70
2018-07-11T04:53:49.299Z,44.17
2018-07-11T04:56:17.702Z,38.73
2018-07-11T04:58:46.128Z,43.10
2018-07-11T05:01:14.416Z,47.40
2018-07-11T05:03:42.796Z,38.57
2018-07-11T05:06:11.137Z,35.37
2018-07-11T05:08:39.493Z,33.03
2018-07-11T05:11:07.889Z,39.70
2018-07-11T05:13:36.333Z,37.00
2018-07-11T05:16:04.737Z,37.00
2018-07-11T05:18:33.084Z,38.20
2018-07-11T05:21:01.432Z,31.33
2018-07-11T05:23:29.765Z,39.33
2018-07-11T05:25:58.084Z,39.57
2018-07-11T05:28:26.419Z,41.73
2018-07-11T05:30:54.764Z,43.60
2018-07-11T05:33:23.098Z,44.87
2018-07-11T05:35:51.469Z,41.03
2018-07-11T05:38:19.850Z,40.70
2018-07-11T05:40:48.337Z,35.87
2018-07-11T05:43:16.724Z,37.67
2018-07-11T05:45:45.076Z,38.23
2018-07-11T05:48:13.434Z,35.43
2018-07-11T05:50:41.749Z,36.27
2018-07-11T05:53:10.101Z,31.70
2018-07-11T05:55:38.491Z,30.63
2018-07-11T05:58:06.796Z,31.57
2018-07-11T06:00:35.132Z,29.07
2018-07-11T06:03:03.493Z,28.63
2018-07-11T06:05:32.010Z,27.37
2018-07-11T06:08:00.264Z,33.20
2018-07-11T06:10:28.610Z,34.30
2018-07-11T06:12:56.978Z,37.70
2018-07-11T06:15:25.320Z,37.90
2018-07-11T06:17:53.640Z,35.27
2018-07-11T06:20:21.993Z,31.83
2018-07-11T06:22:50.634Z,34.03
2018-07-11T06:25:18.973Z,33.83
2018-07-11T06:27:47.312Z,32.37
2018-07-11T06:30:15.698Z,36.27
2018-07-11T06:32:44.050Z,35.10
2018-07-11T06:35:12.414Z,30.70
2018-07-11T06:37:40.740Z,33.20
2018-07-11T06:40:09.153Z,34.00
2018-07-11T06:42:37.493Z,38.00
2018-07-11T06:45:05.885Z,37.90
2018-07-11T06:47:34.213Z,36.00
2018-07-11T06:50:02.585Z,38.30
2018-07-11T06:52:30.984Z,34.73
2018-07-11T06:54:59.369Z,33.87
2018-07-11T06:57:29.225Z,39.73
2018-07-11T06:59:57.573Z,35.90
2018-07-11T07:02:25.946Z,33.67
2018-07-11T07:04:54.346Z,31.43
2018-07-11T07:07:22.692Z,32.77
2018-07-11T07:09:51.057Z,28.83
2018-07-11T07:12:19.405Z,34.67
2018-07-11T07:14:47.765Z,32.93
2018-07-11T07:17:16.112Z,28.30
2018-07-11T07:19:44.491Z,27.70
2018-07-11T07:22:12.840Z,36.87
2018-07-11T07:24:41.224Z,29.00
2018-07-11T07:27:09.601Z,25.60
2018-07-11T07:29:37.936Z,35.20
2018-07-11T07:32:06.329Z,33.93
2018-07-11T07:34:34.706Z,40.13
2018-07-11T07:37:03.077Z,37.33
2018-07-11T07:39:31.486Z,33.40
2018-07-11T07:41:59.890Z,36.90
2018-07-11T07:44:28.244Z,32.87
2018-07-11T07:46:59.683Z,38.50
2018-07-11T07:49:28.925Z,34.10
2018-07-11T07:51:57.749Z,38.20
2018-07-11T07:54:26.413Z,37.67
2018-07-11T07:56:54.821Z,39.90
2018-07-11T07:59:24.270Z,43.47
2018-07-11T08:01:52.729Z,34.27
2018-07-11T08:04:21.125Z,36.80
2018-07-11T08:06:49.515Z,35.67
2018-07-11T08:09:17.966Z,33.23
2018-07-11T08:11:46.348Z,36.77
2018-07-11T08:14:14.678Z,33.20
2018-07-11T08:16:43.065Z,39.93
2018-07-11T08:19:11.389Z,33.03
2018-07-11T08:21:39.743Z,32.80
2018-07-11T08:24:19.385Z,36.03
2018-07-11T08:27:19.748Z,36.73
2018-07-11T08:30:00.154Z,34.80
2018-07-11T08:32:45.419Z,33.53
2018-07-11T08:35:26.973Z,31.80
2018-07-11T08:38:10.617Z,32.40
2018-07-11T08:40:51.892Z,33.53
2018-07-11T08:43:32.100Z,33.80
2018-07-11T08:46:17.737Z,33.97
2018-07-11T08:51:09.640Z,32.70
2018-07-11T08:54:21.573Z,29.90
2018-07-11T08:59:00.961Z,29.80
2018-07-11T09:03:46.025Z,29.17
2018-07-11T09:06:31.141Z,23.40
2018-07-11T09:09:06.215Z,23.27
2018-07-11T09:11:45.592Z,25.60
2018-07-11T09:14:27.317Z,25.83
2018-07-11T09:18:10.809Z,20.87
2018-07-11T09:21:26.083Z,20.07
2018-07-11T09:24:02.726Z,16.00
2018-07-11T09:26:31.069Z,19.67
2018-07-11T09:28:59.416Z,20.30
2018-07-11T09:31:27.809Z,19.90
2018-07-11T09:33:57.169Z,15.37
2018-07-11T09:36:25.550Z,16.57
2018-07-11T09:38:54.364Z,16.77
2018-07-11T09:41:22.709Z,17.13
2018-07-11T09:43:51.077Z,17.10
2018-07-11T09:46:19.489Z,15.87
2018-07-11T09:48:47.901Z,15.87
2018-07-11T09:51:16.304Z,13.47
2018-07-11T09:53:44.831Z,18.00
2018-07-11T09:56:13.261Z,13.30
2018-07-11T09:58:42.005Z,11.90
2018-07-11T10:01:15.905Z,13.67
2018-07-11T10:03:44.322Z,14.17
2018-07-11T10:06:12.781Z,14.90
2018-07-11T10:08:41.173Z,11.83
2018-07-11T10:11:09.526Z,12.17
2018-07-11T10:13:37.968Z,11.67
2018-07-11T10:16:06.338Z,14.83
2018-07-11T10:18:34.725Z,12.67
2018-07-11T10:21:03.090Z,11.77
2018-07-11T10:23:31.453Z,11.70
2018-07-11T10:25:59.898Z,10.63
2018-07-11T10:28:28.270Z,14.50
2018-07-11T10:30:56.668Z,10.47
2018-07-11T10:33:25.059Z,10.43
2018-07-11T10:35:53.597Z,14.43
2018-07-11T10:38:21.953Z,9.83
2018-07-11T10:40:50.416Z,11.73
2018-07-11T10:43:18.802Z,10.77
2018-07-11T10:45:47.180Z,10.77
2018-07-11T10:48:15.565Z,9.90
2018-07-11T10:50:43.919Z,9.13
2018-07-11T10:53:12.369Z,11.97
2018-07-11T10:55:40.745Z,11.17
2018-07-11T10:58:09.097Z,9.60
2018-07-11T11:00:37.752Z,12.67
2018-07-11T11:03:06.151Z,10.33
2018-07-11T11:05:34.505Z,12.97
2018-07-11T11:08:02.956Z,8.37
2018-07-11T11:10:31.304Z,9.53
2018-07-11T11:12:59.669Z,8.17
2018-07-11T11:15:28.030Z,13.30
2018-07-11T11:17:56.401Z,8.53
2018-07-11T11:20:24.812Z,8.93
2018-07-11T11:22:53.229Z,9.00
2018-07-11T11:25:21.612Z,10.47
2018-07-11T11:27:50.008Z,10.30
2018-07-11T11:30:18.374Z,9.40
2018-07-11T11:32:46.753Z,7.37
2018-07-11T11:35:15.105Z,6.73
2018-07-11T11:37:43.520Z,7.13
2018-07-11T11:40:11.864Z,6.93
2018-07-11T11:42:40.643Z,8.63
2018-07-11T11:45:08.981Z,7.37
2018-07-11T11:47:37.421Z,14.47
2018-07-11T11:50:05.826Z,7.73
2018-07-11T11:52:34.276Z,11.37
2018-07-11T11:55:02.629Z,7.57
2018-07-11T11:57:31.111Z,8.20
2018-07-11T11:59:59.504Z,9.20
2018-07-11T12:02:27.892Z,11.77
2018-07-11T12:04:56.381Z,6.57
2018-07-11T12:07:24.733Z,7.77
2018-07-11T12:09:53.114Z,7.73
2018-07-11T12:12:21.500Z,8.50
2018-07-11T12:14:49.849Z,7.83
2018-07-11T12:17:18.241Z,6.07
2018-07-11T12:19:47.344Z,6.20
2018-07-11T12:22:22.802Z,7.80
2018-07-11T12:24:51.632Z,8.30
2018-07-11T12:27:20.221Z,8.10
2018-07-11T12:29:49.408Z,4.40
2018-07-11T12:32:17.745Z,5.73
2018-07-11T12:34:46.262Z,6.17
2018-07-11T12:37:15.546Z,6.90
2018-07-11T12:39:44.178Z,3.73
2018-07-11T12:42:12.590Z,5.43
2018-07-11T12:44:40.969Z,4.77
2018-07-11T12:47:14.730Z,6.10
2018-07-11T12:49:43.156Z,5.60
2018-07-11T12:52:11.565Z,5.23
2018-07-11T12:54:39.973Z,4.07
2018-07-11T12:57:08.774Z,8.60
2018-07-11T12:59:37.242Z,4.40
2018-07-11T13:02:05.647Z,4.07
2018-07-11T13:04:34.106Z,6.70
2018-07-11T13:07:03.117Z,9.23
2018-07-11T13:09:31.538Z,5.80
2018-07-11T13:12:00.491Z,6.10
2018-07-11T13:14:28.845Z,6.10
2018-07-11T13:16:57.262Z,4.33
2018-07-11T13:19:25.653Z,4.30
2018-07-11T13:21:54.097Z,5.70
2018-07-11T13:24:22.445Z,5.20
2018-07-11T13:26:50.818Z,8.20
2018-07-11T13:29:18.890Z,5.47
2018-07-11T13:31:47.541Z,6.67
2018-07-11T13:34:15.964Z,7.67
2018-07-11T13:36:44.360Z,6.73
2018-07-11T13:39:17.892Z,6.13
2018-07-11T13:41:47.033Z,5.60
2018-07-11T13:44:15.405Z,4.67
2018-07-11T13:46:43.816Z,8.73
2018-07-11T13:49:12.774Z,6.50
2018-07-11T13:51:41.216Z,3.67
2018-07-11T13:54:09.965Z,6.13
2018-07-11T13:56:38.325Z,5.00
2018-07-11T13:59:06.697Z,4.10
2018-07-11T14:01:35.105Z,5.87
2018-07-11T14:04:03.792Z,9.43
2018-07-11T14:06:32.162Z,6.40
2018-07-11T14:09:01.180Z,6.50
2018-07-11T14:11:29.521Z,4.00
2018-07-11T14:13:57.975Z,5.63
2018-07-11T14:16:26.338Z,5.23
2018-07-11T14:18:54.753Z,6.73
2018-07-11T14:21:23.337Z,8.57
2018-07-11T14:23:52.041Z,4.77
2018-07-11T14:26:20.846Z,7.13
2018-07-11T14:28:50.489Z,5.80
2018-07-11T14:31:36.097Z,6.50
2018-07-11T14:34:07.269Z,5.20
2018-07-11T14:36:36.076Z,5.03
2018-07-11T14:39:05.718Z,7.33
2018-07-11T14:41:34.212Z,5.60
2018-07-11T14:44:02.633Z,5.00
2018-07-11T14:46:31.446Z,7.33
2018-07-11T14:49:00.241Z,7.30
2018-07-11T14:51:28.774Z,6.43
2018-07-11T14:53:57.764Z,6.00
2018-07-11T14:56:26.171Z,8.47
2018-07-11T14:58:56.446Z,8.63
2018-07-11T15:01:25.156Z,8.00
2018-07-11T15:03:53.845Z,6.97
2018-07-11T15:06:23.088Z,8.07
2018-07-11T15:08:51.893Z,10.43
2018-07-11T15:11:20.716Z,10.50
2018-07-11T15:13:49.272Z,10.37
2018-07-11T15:16:17.949Z,11.80
2018-07-11T15:18:46.548Z,14.77
2018-07-11T15:21:15.261Z,13.70
2018-07-11T15:23:43.674Z,11.43
2018-07-11T15:26:12.121Z,15.20
2018-07-11T15:28:40.665Z,13.77
2018-07-11T15:31:09.053Z,14.60
2018-07-11T15:33:37.457Z,16.47
2018-07-11T15:36:05.837Z,13.40
2018-07-11T15:38:34.230Z,17.53
2018-07-11T15:41:02.641Z,18.77
2018-07-11T15:43:31.100Z,15.90
2018-07-11T15:45:59.820Z,24.50
2018-07-11T15:48:28.616Z,19.87
2018-07-11T15:50:57.248Z,15.23
2018-07-11T15:53:27.167Z,16.10
2018-07-11T15:55:55.601Z,18.20
2018-07-11T15:58:26.519Z,18.27
2018-07-11T16:00:55.517Z,16.20
2018-07-11T16:03:26.049Z,15.70
2018-07-11T16:05:55.608Z,13.83
2018-07-11T16:08:23.977Z,15.83
2018-07-11T16:10:54.121Z,19.50
2018-07-11T16:13:22.572Z,21.80
2018-07-11T16:15:51.053Z,14.60
2018-07-11T16:18:19.378Z,15.47
2018-07-11T16:20:47.864Z,15.63
2018-07-11T16:23:16.264Z,15.57
2018-07-11T16:25:44.966Z,17.10
2018-07-11T16:28:13.402Z,14.90
2018-07-11T16:30:41.799Z,14.17
2018-07-11T16:33:10.174Z,16.90
2018-07-11T16:35:38.617Z,16.97
2018-07-11T16:38:07.001Z,17.03
2018-07-11T16:40:35.393Z,15.53
2018-07-11T16:43:04.019Z,18.90
2018-07-11T16:45:32.461Z,16.60
2018-07-11T16:48:01.087Z,19.13
2018-07-11T16:50:29.521Z,18.17
2018-07-11T16:52:58.210Z,19.73
2018-07-11T16:55:27.292Z,18.33
2018-07-11T16:57:56.292Z,15.80
2018-07-11T17:00:33.592Z,19.33
2018-07-11T17:03:10.059Z,19.07
2018-07-11T17:05:48.041Z,22.50
2018-07-11T17:08:18.558Z,19.50
2018-07-11T17:10:46.989Z,22.83
2018-07-11T17:13:20.832Z,21.67
2018-07-11T17:15:50.631Z,21.00
2018-07-11T17:18:52.348Z,20.90
2018-07-11T17:21:34.620Z,22.50
2018-07-11T17:24:06.865Z,23.80
2018-07-11T17:26:35.945Z,21.73
2018-07-11T17:29:04.420Z,23.03
2018-07-11T17:31:34.610Z,19.23
2018-07-11T17:34:04.005Z,19.57
2018-07-11T17:36:33.946Z,17.80
2018-07-11T17:39:04.440Z,16.23
2018-07-11T17:41:33.350Z,17.23
2018-07-11T17:44:03.204Z,19.67
2018-07-11T17:46:32.613Z,21.10
2018-07-11T17:49:12.561Z,23.27
2018-07-11T17:51:49.934Z,24.93
2018-07-11T17:54:18.382Z,23.97
2018-07-11T17:56:54.340Z,22.97
2018-07-11T17:59:29.016Z,24.67
2018-07-11T18:01:58.517Z,26.63
2018-07-11T18:04:39.026Z,30.97
2018-07-11T18:07:14.661Z,25.70
2018-07-11T18:09:54.379Z,24.47
2018-07-11T18:12:24.885Z,23.57
2018-07-11T18:15:17.808Z,23.33
2018-07-11T18:18:22.978Z,27.23
2018-07-11T18:20:56.605Z,27.53
2018-07-11T18:23:37.985Z,24.00
2018-07-11T18:26:46.941Z,26.67
2018-07-11T18:29:26.709Z,30.40
2018-07-11T18:33:06.698Z,33.00
2018-07-11T18:36:53.900Z,28.30
2018-07-11T18:40:07.641Z,26.53
2018-07-11T18:42:41.998Z,28.63
2018-07-11T18:46:48.593Z,25.57
2018-07-11T18:49:26.057Z,26.03
2018-07-11T18:52:39.737Z,25.23
2018-07-11T18:55:15.566Z,25.53
2018-07-11T18:57:58.662Z,29.10
2018-07-11T19:00:38.450Z,27.50
2018-07-11T19:03:32.649Z,28.50
2018-07-11T19:06:15.962Z,28.17
2018-07-11T19:09:24.237Z,27.00
2018-07-11T19:11:55.941Z,28.10
2018-07-11T19:14:35.070Z,28.17
2018-07-11T19:17:28.713Z,28.90
2018-07-11T19:20:13.745Z,33.90
2018-07-11T19:22:49.397Z,27.63
2018-07-11T19:25:33.314Z,27.60
2018-07-11T19:28:22.521Z,31.23
2018-07-11T19:31:01.810Z,29.43
2018-07-11T19:33:41.664Z,32.07
2018-07-11T19:36:18.456Z,31.70
2018-07-11T19:39:01.892Z,32.67
2018-07-11T19:41:44.782Z,34.60
2018-07-11T19:46:28.780Z,29.77
2018-07-11T19:49:07.821Z,29.40
2018-07-11T19:51:46.560Z,30.93
2018-07-11T19:54:24.093Z,30.20
2018-07-11T19:56:52.728Z,31.30
2018-07-11T19:59:21.273Z,33.33
2018-07-11T20:01:49.656Z,29.40
2018-07-11T20:04:18.188Z,30.57
2018-07-11T20:06:46.590Z,30.37
2018-07-11T20:09:15.253Z,33.20
2018-07-11T20:11:43.658Z,37.10
2018-07-11T20:14:12.113Z,31.07
2018-07-11T20:16:40.524Z,30.87
2018-07-11T20:19:08.996Z,33.07
2018-07-11T20:21:37.346Z,34.50
2018-07-11T20:24:05.712Z,32.03
2018-07-11T20:26:34.097Z,35.07
2018-07-11T20:29:02.633Z,37.97
2018-07-11T20:31:30.984Z,38.00
2018-07-11T20:33:59.342Z,33.37
2018-07-11T20:36:27.813Z,35.00
2018-07-11T20:38:56.881Z,39.93
2018-07-11T20:41:25.289Z,35.47
2018-07-11T20:43:53.890Z,42.80
2018-07-11T20:46:22.346Z,38.17
2018-07-11T20:48:50.926Z,39.43
2018-07-11T20:51:19.469Z,40.77
2018-07-11T20:53:47.890Z,46.40
2018-07-11T20:56:16.241Z,41.87
2018-07-11T20:58:55.973Z,47.37
2018-07-11T21:01:35.608Z,47.00
2018-07-11T21:04:15.482Z,49.47
2018-07-11T21:06:55.241Z,47.27
2018-07-11T21:10:36.149Z,50.30
2018-07-11T21:13:23.460Z,50.13
2018-07-11T21:18:16.397Z,49.60
2018-07-11T21:20:44.769Z,49.80
2018-07-11T21:23:13.128Z,50.83
2018-07-11T21:25:41.484Z,58.80
2018-07-11T21:28:09.853Z,53.77
2018-07-11T21:30:38.197Z,46.43
2018-07-11T21:33:06.558Z,55.87
2018-07-11T21:35:35.100Z,51.93
2018-07-11T21:38:03.824Z,54.30
2018-07-11T21:40:32.238Z,53.70
2018-07-11T21:43:00.608Z,55.37
2018-07-11T21:45:29.026Z,57.50
2018-07-11T21:47:57.384Z,61.30
2018-07-11T21:50:25.757Z,55.80
2018-07-11T21:52:54.090Z,51.00
2018-07-11T21:55:22.465Z,55.70
2018-07-11T21:57:50.788Z,54.20
2018-07-11T22:00:30.537Z,48.73
2018-07-11T22:02:58.929Z,53.47
2018-07-11T22:05:28.433Z,54.77
2018-07-11T22:07:56.866Z,55.60
2018-07-11T22:10:25.420Z,54.13
2018-07-11T22:12:53.753Z,49.50
2018-07-11T22:15:22.121Z,61.07
2018-07-11T22:18:01.757Z,66.30
2018-07-11T22:20:29.392Z,60.10
2018-07-11T22:22:56.641Z,53.73
2018-07-11T22:25:23.909Z,57.77
2018-07-11T22:27:51.177Z,57.33
2018-07-11T22:30:18.445Z,68.33
2018-07-11T22:32:45.709Z,70.13
2018-07-11T22:35:13.037Z,70.20
2018-07-11T22:37:40.321Z,70.00
2018-07-11T22:40:07.661Z,62.60
2018-07-11T22:42:34.908Z,76.80
2018-07-11T22:45:02.209Z,74.80
2018-07-11T22:47:29.485Z,74.60
2018-07-11T22:49:58.872Z,70.90
2018-07-11T22:52:27.595Z,68.63
2018-07-11T22:54:55.172Z,68.53
2018-07-11T22:57:22.440Z,64.33
2018-07-11T22:59:50.446Z,68.77
2018-07-11T23:02:17.913Z,81.33
2018-07-11T23:04:45.190Z,75.53
2018-07-11T23:07:12.449Z,91.70
2018-07-11T23:09:39.729Z,87.70
2018-07-11T23:12:07.142Z,83.03
2018-07-11T23:14:34.728Z,83.07
2018-07-11T23:17:02.904Z,79.13
2018-07-11T23:19:30.406Z,75.23
2018-07-11T23:21:58.190Z,79.97
2018-07-11T23:24:25.677Z,80.73
2018-07-11T23:26:53.149Z,78.23
2018-07-11T23:29:20.640Z,67.20
2018-07-11T23:31:47.926Z,76.00
2018-07-11T23:34:15.197Z,76.37
2018-07-11T23:36:42.452Z,76.70
2018-07-11T23:39:10.768Z,88.17
2018-07-11T23:41:38.057Z,77.77
2018-07-11T23:44:05.437Z,75.17
2018-07-11T23:46:32.713Z,79.73
2018-07-11T23:48:59.964Z,82.00
2018-07-11T23:51:27.255Z,73.87
2018-07-11T23:53:54.509Z,80.93
2018-07-11T23:56:21.784Z,75.47
2018-07-11T23:58:49.041Z,71.87
